ADDS METAR Data INFO
IDs: Format: Raw Decoded Include TAF

Data at: 0700 UTC 19 Oct 2017

KHQI 190655Z AUTO 07018KT 10SM BKN034 BKN040 26/19 A3007 RMK A01
KHQI 190635Z AUTO 08020KT 10SM SCT031 BKN038 26/19 A3008 RMK A01
KHQI 190615Z AUTO 07020KT 10SM SCT031 BKN038 26/19 A3008 RMK A01
KHQI 190555Z AUTO 06021KT 10SM SCT029 BKN037 BKN044 26/20 A3009 RMK A01
KHQI 190535Z AUTO 06021KT 10SM FEW030 BKN038 26/20 A3009 RMK A01
KHQI 190515Z AUTO 07023KT 10SM SCT029 BKN035 BKN041 26/20 A3009 RMK A01
KHQI 190455Z AUTO 06018KT 10SM SCT030 BKN035 BKN041 26/20 A3010 RMK A01
KHQI 190435Z AUTO 06017KT 10SM SCT030 SCT035 26/20 A3010 RMK A01
KHQI 190415Z AUTO 07017KT 10SM SCT034 BKN040 26/19 A3010 RMK A01
KHQI 190355Z AUTO 06016KT 10SM SCT037 26/19 A3011 RMK A01
KHQI 190335Z AUTO 07017KT 10SM FEW032 FEW040 26/19 A3011 RMK A01
KHQI 190315Z AUTO 07015KT 10SM SCT033 SCT043 26/19 A3011 RMK A01
KHQI 190255Z AUTO 07016KT 10SM SCT032 SCT038 SCT043 26/19 A3011 RMK A01
KHQI 190235Z AUTO 07015KT 10SM SCT029 SCT033 BKN042 26/18 A3011 RMK A01
KHQI 190215Z AUTO 07015KT 10SM BKN031 BKN041 OVC047 26/20 A3011 RMK A01
KHQI 190155Z AUTO 06013KT 10SM FEW032 SCT044 26/19 A3011 RMK A01
KHQI 190135Z AUTO 07014KT 10SM FEW033 FEW042 26/19 A3010 RMK A01
KHQI 190115Z AUTO 05012KT 10SM FEW042 26/19 A3010 RMK A01
KHQI 190055Z AUTO 07011KT 10SM CLR 26/18 A3009 RMK A01
KHQI 190035Z AUTO 04011KT 10SM FEW035 26/18 A3009 RMK A01
KHQI 190015Z AUTO 05011KT 10SM SCT032 SCT040 26/18 A3009 RMK A01
KHQI 182355Z AUTO 04010KT 10SM SCT031 SCT040 26/19 A3008 RMK A01
KHQI 182335Z AUTO 06009KT 10SM FEW030 26/19 A3008 RMK A01
KHQI 182315Z AUTO 04011KT 10SM CLR 26/19 A3007 RMK A01
KHQI 182255Z AUTO 05013KT 10SM FEW029 SCT038 26/20 A3008 RMK A01
KHQI 182235Z AUTO 04012KT 10SM SCT030 BKN038 26/19 A3008 RMK A01
KHQI 182215Z AUTO 05012KT 10SM SCT031 26/20 A3008 RMK A01
KHQI 182155Z AUTO 05011KT 10SM SCT029 BKN038 26/20 A3008 RMK A01
KHQI 182135Z AUTO 05012KT 10SM SCT027 SCT033 BKN039 26/20 A3008 RMK A01
KHQI 182115Z AUTO 03014KT 10SM FEW025 FEW033 26/20 A3008 RMK A01
KHQI 182055Z AUTO 05015KT 10SM SCT027 SCT035 26/20 A3008 RMK A01
KHQI 182035Z AUTO 04015KT 10SM FEW025 26/20 A3008 RMK A01
KHQI 182015Z AUTO 05013KT 10SM SCT026 26/20 A3009 RMK A01
KHQI 181955Z AUTO 06012KT 10SM FEW026 26/20 A3009 RMK A01
KHQI 181935Z AUTO 05013KT 10SM FEW025 26/20 A3009 RMK A01
KHQI 181915Z AUTO 06012KT 10SM FEW026 SCT032 26/20 A3010 RMK A01
KHQI 181855Z AUTO 06013KT 10SM BKN026 BKN033 26/20 A3010 RMK A01
KHQI 181835Z AUTO 05011KT 10SM SCT025 SCT031 27/20 A3011 RMK A01
KHQI 181815Z AUTO 05007KT 10SM CLR 27/20 A3012 RMK A01
KHQI 181755Z AUTO 06008KT 10SM CLR 27/19 A3012 RMK A01
KHQI 181735Z AUTO 04008KT 10SM FEW031 FEW038 27/19 A3013 RMK A01
KHQI 181715Z AUTO 05008KT 10SM SCT035 27/19 A3013 RMK A01
KHQI 181655Z AUTO 04007KT 10SM SCT034 27/19 A3014 RMK A01
KHQI 181635Z AUTO 04008KT 10SM SCT035 27/19 A3014 RMK A01
KHQI 181615Z AUTO 05007KT 10SM BKN034 26/19 A3014 RMK A01
KHQI 181555Z AUTO 06007KT 10SM FEW031 26/19 A3014 RMK A01
KHQI 181535Z AUTO 05008KT 10SM FEW036 26/19 A3014 RMK A01
KHQI 181515Z AUTO 06008G13KT 10SM BKN035 26/18 A3014 RMK A01
KHQI 181455Z AUTO 07010KT 10SM BKN033 26/18 A3014 RMK A01
KHQI 181435Z AUTO 04006KT 10SM FEW033 26/18 A3014 RMK A01
KHQI 181415Z AUTO 06008KT 10SM CLR 26/18 A3013 RMK A01
KHQI 181355Z AUTO 06007KT 10SM CLR 25/17 A3012 RMK A01
KHQI 181335Z AUTO 07008KT 10SM CLR 25/17 A3012 RMK A01
KHQI 181300Z AUTO 07012KT 10SM FEW032 25/16 A3010 RMK A01
KHQI 181255Z AUTO 06010KT 10SM SCT033 25/17 A3010 RMK A01
KHQI 181235Z AUTO 06012KT 10SM BKN033 25/18 A3010 RMK A01
KHQI 181215Z AUTO 06009KT 10SM FEW035 25/17 A3010 RMK A01
KHQI 181155Z AUTO 05008G14KT 10SM SCT035 24/17 A3010 RMK A01
KHQI 181135Z AUTO 09010G15KT 10SM BKN035 25/17 A3010 RMK A01
KHQI 181115Z AUTO 08011KT 10SM FEW035 25/16 A3009 RMK A01
KHQI 181055Z AUTO 07011KT 10SM SCT035 24/16 A3010 RMK A01
KHQI 181035Z AUTO 08009KT 10SM FEW033 24/17 A3010 RMK A01
KHQI 181015Z AUTO 07008KT 10SM FEW034 24/16 A3009 RMK A01
KHQI 180955Z AUTO 06009KT 10SM BKN034 24/16 A3009 RMK A01
KHQI 180935Z AUTO 06011KT 10SM BKN034 24/17 A3009 RMK A01
KHQI 180915Z AUTO 05011KT 10SM BKN033 24/16 A3010 RMK A01
KHQI 180725Z AUTO 07011KT 10SM SCT031 23/16 A3011 RMK A01
KHQI 180715Z AUTO 05012KT 10SM SCT031 23/17 A3011 RMK A01
KHQI 180655Z AUTO 06013KT 10SM BKN031 23/16 A3012 RMK A01
KHQI 180635Z AUTO 06013KT 10SM SCT029 23/17 A3012 RMK A01
KHQI 180505Z AUTO 07013KT 10SM CLR 23/15 A3014 RMK A01
KHQI 180455Z AUTO 05012G20KT 10SM CLR 23/15 A3014 RMK A01
KHQI 180435Z AUTO 06013KT 10SM CLR 23/14 A3014 RMK A01
KHQI 180415Z AUTO 05013KT 10SM CLR 23/14 A3015 RMK A01
KHQI 180355Z AUTO 05015KT 10SM CLR 23/14 A3015 RMK A01
KHQI 180335Z AUTO 05013KT 10SM CLR 23/14 A3015 RMK A01
KHQI 180315Z AUTO 05012KT 10SM CLR 23/15 A3015 RMK A01
KHQI 180255Z AUTO 04014KT 10SM CLR 23/14 A3015 RMK A01
KHQI 180235Z AUTO 05012KT 10SM CLR 23/14 A3014 RMK A01
KHQI 180215Z AUTO 05013KT 10SM CLR 23/15 A3014 RMK A01
KHQI 180155Z AUTO 04014KT 10SM CLR 23/14 A3014 RMK A01
KHQI 180135Z AUTO 03014KT 10SM CLR 23/15 A3013 RMK A01
KHQI 180115Z AUTO 05014KT 10SM CLR 23/15 A3012 RMK A01
KHQI 180055Z AUTO 04013G19KT 10SM CLR 23/14 A3011 RMK A01
KHQI 180035Z AUTO 04016KT 10SM CLR 23/14 A3011 RMK A01
KHQI 180015Z AUTO 04017KT 10SM CLR 23/14 A3011 RMK A01
KHQI 172355Z AUTO 02014KT 10SM CLR 23/14 A3011 RMK A01
KHQI 172335Z AUTO 02015KT 10SM CLR 23/14 A3011 RMK A01
KHQI 172315Z AUTO 02015KT 10SM CLR 23/14 A3010 RMK A01
KHQI 172255Z AUTO 03018KT 10SM CLR 23/14 A3010 RMK A01
KHQI 172235Z AUTO 03017KT 10SM CLR 23/14 A3010 RMK A01
KHQI 172215Z AUTO 02017KT 10SM CLR 23/14 A3010 RMK A01
KHQI 172155Z AUTO 03016G23KT 10SM CLR 23/15 A3010 RMK A01
KHQI 172135Z AUTO 03016KT 10SM CLR 23/15 A3010 RMK A01
KHQI 172115Z AUTO 02016KT 10SM CLR 23/16 A3010 RMK A01
KHQI 172055Z AUTO 02015KT 10SM CLR 23/16 A3011 RMK A01
KHQI 172035Z AUTO 01014KT 10SM CLR 23/16 A3011 RMK A01
KHQI 172015Z AUTO 02016KT 10SM CLR 23/16 A3012 RMK A01
KHQI 171955Z AUTO 01015KT 10SM CLR 23/16 A3012 RMK A01
KHQI 171935Z AUTO 01014G19KT 10SM CLR 23/16 A3012 RMK A01
KHQI 171915Z AUTO 02013G23KT 10SM CLR 23/16 A3013 RMK A01